Time;durP1;ratioP1;P1;durP2;ratioP2;P2;SDS_P1;SDS_P2;PMS_P1;PMS_P2;Temp;Humidity;BMP_temperature;BMP_pressure;BME280_temperature;BME280_humidity;BME280_pressure;Samples;Min_cycle;Max_cycle;Signal;HPM_P1;HPM_P2
2024/01/04 03:21:41;;;;;;;1.03;0.90;;;8.20;1.00;;;;;;4586910;23;20497;-92
2024/01/04 03:51:58;;;;;;;1.27;1.03;;;8.00;1.00;;;;;;4819496;29;20458;-91
2024/01/04 04:01:42;;;;;;;3.33;1.03;;;8.00;1.00;;;;;;4972215;28;20509;-91
2024/01/04 04:11:48;;;;;;;;;;;;;;;;;;;;;
2024/01/04 04:56:56;;;;;;;1.50;1.40;;;7.90;1.00;;;;;;4986311;28;20518;-83
2024/01/04 04:59:23;;;;;;;5.40;4.90;;;8.00;1.00;;;;;;4995109;28;20473;-83
2024/01/04 05:01:52;;;;;;;1.93;1.83;;;8.00;1.00;;;;;;4994757;28;20492;-83
2024/01/04 05:04:18;;;;;;;1.60;1.50;;;8.00;1.00;;;;;;4986501;28;20480;-83
2024/01/04 05:06:45;;;;;;;1.10;1.00;;;8.10;1.00;;;;;;4984530;28;20444;-83
2024/01/04 05:09:12;;;;;;;1.50;1.40;;;8.00;1.00;;;;;;4985312;28;20524;-83
2024/01/04 05:11:39;;;;;;;2.90;1.50;;;8.00;1.00;;;;;;4984295;28;20528;-85
2024/01/04 05:14:06;;;;;;;1.50;1.40;;;8.00;1.00;;;;;;4984661;28;20447;-83
2024/01/04 05:16:32;;;;;;;1.50;1.40;;;8.00;1.00;;;;;;4984756;28;20548;-83
2024/01/04 05:19:01;;;;;;;1.60;1.50;;;8.00;1.00;;;;;;4985021;28;20430;-83
2024/01/04 05:21:33;;;;;;;3.33;1.40;;;8.00;1.00;;;;;;4983355;28;21013;-84
2024/01/04 05:24:00;;;;;;;1.80;1.70;;;7.90;1.00;;;;;;4981778;28;20941;-83
2024/01/04 05:26:27;;;;;;;1.73;1.63;;;7.90;1.00;;;;;;4987653;28;20504;-83
2024/01/04 05:28:53;;;;;;;1.80;1.50;;;7.90;1.00;;;;;;4994662;28;20452;-83
2024/01/04 05:31:21;;;;;;;2.20;1.50;;;7.90;1.00;;;;;;4985298;28;21001;-83
2024/01/04 05:33:47;;;;;;;1.73;1.63;;;7.90;1.00;;;;;;4990026;28;20491;-84
2024/01/04 05:36:16;;;;;;;2.33;1.60;;;8.00;1.00;;;;;;4977601;28;20453;-83
2024/01/04 05:38:42;;;;;;;1.20;1.20;;;8.00;1.00;;;;;;4978462;28;20489;-83
2024/01/04 05:41:09;;;;;;;1.97;1.63;;;8.00;1.00;;;;;;4979132;28;20455;-83
2024/01/04 05:43:36;;;;;;;2.30;1.87;;;8.00;1.00;;;;;;4981521;28;20539;-84
2024/01/04 05:46:04;;;;;;;1.73;1.60;;;8.00;1.00;;;;;;4983004;28;20507;-83
2024/01/04 05:48:31;;;;;;;2.30;1.67;;;8.00;1.00;;;;;;4982630;28;20473;-83
2024/01/04 05:50:58;;;;;;;1.80;1.70;;;7.90;1.00;;;;;;4982407;28;20783;-83
2024/01/04 05:53:26;;;;;;;4.00;1.17;;;7.90;1.00;;;;;;4994604;28;20488;-83
2024/01/04 05:55:53;;;;;;;4.13;1.50;;;7.90;1.00;;;;;;4993728;28;20505;-83
2024/01/04 05:58:20;;;;;;;3.40;2.30;;;7.90;1.00;;;;;;4995279;28;20489;-83
2024/01/04 06:00:48;;;;;;;1.70;1.43;;;7.90;1.00;;;;;;4994551;28;20437;-82
2024/01/04 06:03:14;;;;;;;2.70;1.90;;;7.90;1.00;;;;;;4993921;28;20453;-83
2024/01/04 06:05:41;;;;;;;2.00;1.90;;;7.90;1.00;;;;;;4993918;28;20472;-82
2024/01/04 06:08:08;;;;;;;1.53;1.43;;;7.80;1.00;;;;;;4995128;28;20540;-82
2024/01/04 06:10:36;;;;;;;1.57;1.47;;;7.80;1.30;;;;;;4995527;28;20476;-82
2024/01/04 06:13:03;;;;;;;2.00;1.90;;;7.80;1.00;;;;;;4995206;28;20423;-84
2024/01/04 06:15:30;;;;;;;1.57;1.47;;;7.80;1.00;;;;;;4990446;28;20935;-82
2024/01/04 06:17:57;;;;;;;2.30;2.10;;;7.80;1.00;;;;;;4983934;28;20539;-83
2024/01/04 06:20:24;;;;;;;1.73;1.63;;;7.80;1.00;;;;;;4984077;28;20460;-83
2024/01/04 06:22:51;;;;;;;1.63;1.50;;;7.80;1.00;;;;;;4992753;28;20445;-82
2024/01/04 06:25:18;;;;;;;1.60;1.50;;;7.80;1.00;;;;;;4999112;28;20449;-82
2024/01/04 06:27:46;;;;;;;2.30;1.97;;;7.80;1.00;;;;;;4999057;28;20437;-82
2024/01/04 06:30:13;;;;;;;4.27;2.67;;;7.80;1.00;;;;;;4999126;28;20463;-82
2024/01/04 06:32:40;;;;;;;1.80;1.70;;;7.80;1.00;;;;;;4998759;28;20475;-80
2024/01/04 06:35:08;;;;;;;2.37;1.57;;;7.80;1.00;;;;;;4996778;28;20938;-83
2024/01/04 06:37:34;;;;;;;1.70;1.60;;;7.70;1.00;;;;;;4985511;28;20517;-83
2024/01/04 06:40:05;;;;;;;2.60;2.40;;;7.80;1.00;;;;;;4984278;28;20450;-84
2024/01/04 06:42:33;;;;;;;2.40;2.20;;;7.70;1.00;;;;;;4985221;28;20444;-84
2024/01/04 06:45:01;;;;;;;1.47;1.37;;;7.70;1.00;;;;;;4983431;28;20473;-83
2024/01/04 06:47:28;;;;;;;1.30;1.20;;;7.70;1.00;;;;;;4992649;28;20422;-84
2024/01/04 06:49:54;;;;;;;1.30;1.20;;;7.50;1.00;;;;;;4994283;28;20473;-83
2024/01/04 06:52:21;;;;;;;1.13;1.03;;;7.40;1.00;;;;;;4988237;28;20464;-83
2024/01/04 06:54:48;;;;;;;1.40;1.30;;;7.40;1.00;;;;;;4989855;28;20572;-82
2024/01/04 06:57:15;;;;;;;1.20;1.10;;;7.30;1.00;;;;;;4993357;28;20430;-83
2024/01/04 06:59:42;;;;;;;2.73;1.40;;;7.20;1.00;;;;;;4997358;28;20456;-81
2024/01/04 07:02:11;;;;;;;0.90;0.90;;;7.20;1.00;;;;;;4991779;28;20512;-83
2024/01/04 07:04:38;;;;;;;0.80;0.80;;;7.10;1.00;;;;;;4985800;28;20520;-83
2024/01/04 07:07:05;;;;;;;1.40;1.30;;;7.10;1.00;;;;;;4984706;28;20445;-84
2024/01/04 07:09:32;;;;;;;1.30;1.20;;;7.20;1.00;;;;;;4983729;28;20455;-83
2024/01/04 07:11:58;;;;;;;1.33;1.23;;;7.10;1.00;;;;;;4982818;28;20449;-83
2024/01/04 07:14:25;;;;;;;1.60;1.50;;;7.10;1.00;;;;;;4986922;28;20481;-82
2024/01/04 07:16:52;;;;;;;1.65;1.02;;;7.10;1.00;;;;;;4985805;28;20213;-83
2024/01/04 07:19:22;;;;;;;0.83;0.80;;;7.10;1.00;;;;;;4986439;28;20232;-83
2024/01/04 07:21:49;;;;;;;0.70;0.70;;;7.10;1.00;;;;;;4993384;28;20471;-83
2024/01/04 07:24:16;;;;;;;0.77;0.77;;;7.00;1.00;;;;;;4994066;28;20480;-82
2024/01/04 07:26:43;;;;;;;2.10;0.80;;;6.90;99.90;;;;;;4986134;28;20288;-83
2024/01/04 07:29:10;;;;;;;0.77;0.77;;;6.80;99.90;;;;;;4984122;28;20453;-83
2024/01/04 07:31:37;;;;;;;0.88;0.75;;;6.80;99.90;;;;;;4983937;28;20426;-83
2024/01/04 07:34:04;;;;;;;0.70;0.70;;;6.70;99.90;;;;;;4987362;28;20690;-83
2024/01/04 07:36:34;;;;;;;1.60;0.80;;;6.50;99.90;;;;;;4986585;28;20301;-82
2024/01/04 07:39:01;;;;;;;1.85;0.90;;;6.40;36.80;;;;;;4988671;28;20473;-83
2024/01/04 07:41:27;;;;;;;0.80;0.80;;;6.20;1.00;;;;;;4984938;28;20210;-84
2024/01/04 07:43:54;;;;;;;0.95;0.80;;;6.10;1.00;;;;;;4993459;28;20241;-84
2024/01/04 07:46:21;;;;;;;2.55;1.00;;;6.00;1.00;;;;;;4981710;28;20268;-82
2024/01/04 07:48:48;;;;;;;1.50;0.98;;;6.00;1.00;;;;;;4983027;28;20603;-83
2024/01/04 07:51:15;;;;;;;1.20;1.10;;;6.00;1.00;;;;;;4983360;28;20228;-82
2024/01/04 07:53:43;;;;;;;1.40;0.98;;;5.90;1.00;;;;;;4984014;28;20229;-82
2024/01/04 07:56:10;;;;;;;1.00;0.90;;;5.90;1.00;;;;;;4983229;28;20265;-83
2024/01/04 07:58:37;;;;;;;1.08;0.98;;;5.80;1.00;;;;;;4984472;28;20229;-83
2024/01/04 08:01:04;;;;;;;1.27;1.17;;;5.80;1.00;;;;;;4983502;28;20216;-83
2024/01/04 08:03:31;;;;;;;1.20;1.10;;;5.90;1.00;;;;;;4983365;28;20264;-83
2024/01/04 08:05:58;;;;;;;1.35;1.25;;;5.80;1.00;;;;;;4982834;28;20566;-83
2024/01/04 08:08:26;;;;;;;1.50;1.30;;;5.90;1.00;;;;;;4982312;28;20234;-83
2024/01/04 08:11:35;;;;;;;1.30;1.17;;;5.80;1.00;;;;;;4984651;28;20301;-84
2024/01/04 08:14:02;;;;;;;1.30;1.05;;;5.80;1.00;;;;;;4983642;28;20265;-83
2024/01/04 08:16:29;;;;;;;1.60;0.98;;;5.80;1.00;;;;;;4982976;28;20325;-83
2024/01/04 08:18:56;;;;;;;2.28;1.00;;;5.80;1.00;;;;;;4983212;28;20276;-84
2024/01/04 08:21:22;;;;;;;44.50;24.15;;;5.80;1.00;;;;;;4982934;28;20300;-83
2024/01/04 08:23:50;;;;;;;1.35;1.25;;;5.80;1.00;;;;;;4983309;28;20210;-83
2024/01/04 08:26:18;;;;;;;1.48;1.35;;;5.70;1.00;;;;;;4982789;28;20277;-83
2024/01/04 08:28:45;;;;;;;1.25;1.00;;;5.60;1.00;;;;;;4982557;28;20686;-83
2024/01/04 08:31:12;;;;;;;1.65;1.55;;;5.60;24.40;;;;;;4983048;28;20269;-84
2024/01/04 08:33:38;;;;;;;1.00;0.90;;;5.60;75.70;;;;;;4997323;28;20190;-84
2024/01/04 08:36:05;;;;;;;1.00;1.00;;;5.70;99.90;;;;;;4981580;28;20312;-83
2024/01/04 08:38:32;;;;;;;1.02;1.02;;;5.70;99.90;;;;;;4979307;28;20253;-84
2024/01/04 08:41:00;;;;;;;1.25;1.15;;;5.60;99.90;;;;;;4978932;28;20212;-83
2024/01/04 08:43:29;;;;;;;1.33;1.23;;;5.60;99.90;;;;;;4978593;28;20202;-83
2024/01/04 08:45:55;;;;;;;1.92;1.70;;;5.60;99.90;;;;;;4979905;28;20229;-84
2024/01/04 08:48:22;;;;;;;1.08;1.05;;;5.70;99.90;;;;;;4981882;28;20293;-84
2024/01/04 08:50:49;;;;;;;0.95;0.95;;;5.70;1.00;;;;;;4981356;28;20273;-84
2024/01/04 08:53:20;;;;;;;2.80;1.30;;;5.60;1.00;;;;;;4982312;28;20667;-83
2024/01/04 08:55:47;;;;;;;1.20;1.10;;;5.60;58.60;;;;;;4996970;28;20256;-83
2024/01/04 08:58:14;;;;;;;1.25;0.90;;;5.60;99.90;;;;;;4996626;28;20394;-83
2024/01/04 09:00:42;;;;;;;1.10;1.10;;;5.50;99.90;;;;;;4990845;28;20212;-83
2024/01/04 09:03:09;;;;;;;1.10;1.00;;;5.40;99.90;;;;;;4991302;28;20197;-82
2024/01/04 09:05:35;;;;;;;0.90;0.90;;;5.50;99.90;;;;;;4979643;28;20232;-83
2024/01/04 09:08:04;;;;;;;0.77;0.77;;;5.40;38.50;;;;;;4978640;28;20604;-83
2024/01/04 09:10:32;;;;;;;0.70;0.70;;;5.40;16.90;;;;;;4978845;28;20201;-83
2024/01/04 09:12:59;;;;;;;0.80;0.70;;;5.40;38.00;;;;;;4981515;28;20221;-83
2024/01/04 09:15:25;;;;;;;1.48;0.80;;;5.30;6.20;;;;;;4983949;28;20317;-84
2024/01/04 09:17:54;;;;;;;0.70;0.70;;;5.30;11.60;;;;;;4994235;28;20190;-83
2024/01/04 09:20:22;;;;;;;0.60;0.60;;;5.30;1.00;;;;;;4991492;28;20554;-83
2024/01/04 09:22:50;;;;;;;0.85;0.85;;;5.20;1.00;;;;;;4991892;28;20206;-83
2024/01/04 09:25:17;;;;;;;0.98;0.88;;;5.10;1.00;;;;;;4978620;28;20229;-84
2024/01/04 09:27:44;;;;;;;0.70;0.70;;;5.10;1.00;;;;;;4979205;28;20212;-83
2024/01/04 09:30:11;;;;;;;0.90;0.90;;;5.00;1.00;;;;;;4979936;28;20312;-83
2024/01/04 09:32:39;;;;;;;0.80;0.80;;;5.00;1.00;;;;;;4992750;28;20225;-83
2024/01/04 09:35:08;;;;;;;1.23;0.90;;;5.00;1.00;;;;;;4998201;28;20229;-82
2024/01/04 09:37:35;;;;;;;1.02;0.90;;;4.90;1.00;;;;;;4998010;28;20257;-84
2024/01/04 09:40:03;;;;;;;0.70;0.70;;;4.90;1.00;;;;;;4998863;28;20237;-83
2024/01/04 09:42:37;;;;;;;1.38;1.17;;;4.80;99.90;;;;;;4998541;28;20248;-83
2024/01/04 09:45:09;;;;;;;1.02;1.00;;;4.70;99.90;;;;;;4995019;28;20237;-83
2024/01/04 09:47:40;;;;;;;1.27;1.17;;;4.90;1.00;;;;;;4998177;28;20178;-83
2024/01/04 09:50:10;;;;;;;2.28;1.10;;;4.90;1.00;;;;;;4995804;28;20197;-83
2024/01/04 09:52:39;;;;;;;1.10;1.00;;;4.90;1.00;;;;;;4986256;28;20202;-83
2024/01/04 09:55:08;;;;;;;1.40;1.30;;;4.90;99.90;;;;;;4985111;28;20324;-83
2024/01/04 09:57:35;;;;;;;0.98;0.98;;;4.90;99.90;;;;;;4984686;28;20190;-83
2024/01/04 10:00:02;;;;;;;1.30;1.20;;;5.10;99.90;;;;;;4983945;28;20280;-83
2024/01/04 10:02:30;;;;;;;1.25;1.00;;;5.10;99.90;;;;;;4983245;28;20217;-83
2024/01/04 10:04:59;;;;;;;1.23;1.13;;;5.00;99.90;;;;;;4981950;28;20226;-83
2024/01/04 10:07:32;;;;;;;1.17;0.93;;;4.90;99.90;;;;;;4982891;28;20205;-84
2024/01/04 10:10:07;;;;;;;1.10;1.00;;;4.80;99.90;;;;;;4989702;28;20225;-83
2024/01/04 10:12:36;;;;;;;1.40;1.30;;;4.80;99.90;;;;;;4980878;28;20280;-82
2024/01/04 10:15:03;;;;;;;1.65;1.10;;;4.90;99.90;;;;;;4978086;28;20237;-83
2024/01/04 10:17:32;;;;;;;1.33;1.20;;;4.80;99.90;;;;;;4983355;28;20208;-84
2024/01/04 10:19:58;;;;;;;0.93;0.90;;;4.80;99.90;;;;;;4982895;28;20230;-84
2024/01/04 10:22:27;;;;;;;1.60;1.00;;;4.70;99.90;;;;;;4982953;28;20206;-83
2024/01/04 10:24:54;;;;;;;1.80;1.27;;;4.70;58.70;;;;;;4980656;28;20293;-83
2024/01/04 10:27:22;;;;;;;1.23;1.02;;;4.70;1.00;;;;;;4981963;28;20220;-83
2024/01/04 10:29:51;;;;;;;1.33;1.10;;;4.70;1.00;;;;;;4980526;28;20216;-84
2024/01/04 10:32:18;;;;;;;1.00;1.00;;;4.70;1.00;;;;;;4983126;28;20282;-82
2024/01/04 10:34:45;;;;;;;2.38;1.05;;;4.80;1.00;;;;;;4983360;28;20289;-83
2024/01/04 10:37:13;;;;;;;1.27;1.25;;;4.80;1.00;;;;;;4986401;28;20205;-92
2024/01/04 10:39:45;;;;;;;1.08;1.08;;;4.70;1.00;;;;;;4990581;28;20218;-84
2024/01/04 10:42:15;;;;;;;1.90;1.20;;;4.70;48.90;;;;;;4982354;28;20209;-84
2024/01/04 10:44:45;;;;;;;1.00;1.00;;;4.60;1.00;;;;;;4984741;28;20258;-83
2024/01/04 10:47:14;;;;;;;1.60;1.30;;;4.60;1.00;;;;;;4986101;28;20214;-85
2024/01/04 10:49:42;;;;;;;1.13;1.13;;;4.60;1.00;;;;;;4997859;28;20220;-83
2024/01/04 10:52:14;;;;;;;1.80;1.60;;;4.60;1.00;;;;;;4997762;28;20206;-83
2024/01/04 10:54:43;;;;;;;1.35;1.10;;;4.60;1.00;;;;;;4991994;28;20249;-84
2024/01/04 11:00:51;;;;;;;1.58;1.42;;;4.60;99.90;;;;;;5105652;23;20289;-90
2024/01/04 11:03:35;;;;;;;0.90;0.90;;;4.60;99.90;;;;;;5001490;28;20190;-90
2024/01/04 11:12:57;;;;;;;1.33;1.20;;;4.70;99.90;;;;;;4982471;28;20205;-91
2024/01/04 11:15:54;;;;;;;0.90;0.90;;;4.70;99.90;;;;;;4989726;28;20668;-90
2024/01/04 11:19:00;;;;;;;1.30;1.20;;;4.70;1.00;;;;;;4947537;29;20238;-90
2024/01/04 11:22:04;;;;;;;1.75;1.65;;;4.70;99.90;;;;;;4985935;28;20558;-91
2024/01/04 11:28:46;;;;;;;;;;;;;;;;;;;;;
2024/01/04 11:38:32;;;;;;;;;;;;;;;;;;;;;
2024/01/04 12:24:58;;;;;;;1.35;1.25;;;4.10;1.00;;;;;;4999810;28;20244;-90
2024/01/04 12:31:35;;;;;;;1.27;1.23;;;4.00;1.00;;;;;;4989363;28;20210;-92
2024/01/04 12:34:53;;;;;;;;;;;;;;;;;;;;;
2024/01/04 12:42:37;;;;;;;1.52;1.42;;;4.00;1.00;;;;;;5138999;23;20589;-90
2024/01/04 12:45:11;;;;;;;1.25;1.23;;;4.00;1.00;;;;;;4982080;28;20210;-90
2024/01/04 12:51:46;;;;;;;1.45;1.20;;;3.90;99.90;;;;;;5403442;23;20207;-93
2024/01/04 12:54:44;;;;;;;4.10;2.00;;;3.90;91.80;;;;;;4997494;28;20200;-93
2024/01/04 12:57:41;;;;;;;1.38;1.27;;;3.80;36.10;;;;;;4997335;28;20213;-93
2024/01/04 13:00:54;;;;;;;2.28;2.08;;;3.90;99.90;;;;;;4995589;28;20237;-92
2024/01/04 13:12:34;;;;;;;1.35;1.25;;;3.70;99.90;;;;;;4976052;28;20273;-93
2024/01/04 13:17:46;;;;;;;1.30;1.20;;;3.80;99.90;;;;;;4976782;28;20250;-93
2024/01/04 13:20:48;;;;;;;1.50;1.40;;;3.70;99.90;;;;;;4985113;28;20213;-93
2024/01/04 13:24:28;;;;;;;1.38;1.30;;;3.70;99.90;;;;;;4998818;28;20220;-93
2024/01/04 13:47:46;;;;;;;1.52;1.42;;;3.50;1.00;;;;;;4753120;23;20245;-92
2024/01/04 13:50:29;;;;;;;1.50;1.42;;;3.50;1.00;;;;;;4990488;28;20209;-92
2024/01/04 13:52:56;;;;;;;1.83;1.25;;;3.70;1.00;;;;;;4986114;28;20233;-91
2024/01/04 13:55:47;;;;;;;1.35;1.25;;;3.70;1.00;;;;;;4985843;28;20201;-91
2024/01/04 14:01:52;;;;;;;1.48;1.38;;;3.90;1.00;;;;;;4973676;28;20282;-91
2024/01/04 14:07:59;;;;;;;1.98;1.88;;;3.60;1.00;;;;;;4960392;28;20233;-92
2024/01/04 14:13:45;;;;;;;3.15;1.30;;;3.50;1.00;;;;;;4968922;28;20264;-93
2024/01/04 14:16:18;;;;;;;1.38;1.27;;;3.60;1.00;;;;;;4995318;28;20233;-92
2024/01/04 14:18:51;;;;;;;1.65;1.42;;;3.40;1.00;;;;;;4993066;28;20198;-95
2024/01/04 14:21:30;;;;;;;1.15;1.10;;;3.50;1.00;;;;;;4989535;28;20214;-93
2024/01/04 14:24:05;;;;;;;1.20;1.10;;;3.40;1.00;;;;;;4992973;28;20238;-93
2024/01/04 14:26:36;;;;;;;1.52;1.20;;;3.40;1.00;;;;;;4987643;28;20713;-91
2024/01/04 14:29:03;;;;;;;2.25;1.40;;;3.40;14.50;;;;;;4985708;28;20186;-92
2024/01/04 14:31:33;;;;;;;1.52;1.20;;;3.80;37.30;;;;;;4985581;28;20293;-92
2024/01/04 14:41:51;;;;;;;1.55;1.40;;;2.70;1.00;;;;;;4941084;28;20259;-91
2024/01/04 15:43:59;;;;;;;1.73;1.50;;;2.20;1.00;;;;;;5003280;28;20209;-91
2024/01/04 15:47:28;;;;;;;;;;;;;;;;;;;;;
2024/01/04 15:51:00;;;;;;;;;;;;;;;;;;;;;
2024/01/04 15:53:57;;;;;;;1.60;1.50;;;2.10;1.00;;;;;;5008599;28;20224;-92
2024/01/04 16:03:09;;;;;;;2.00;1.55;;;2.20;1.00;;;;;;5003655;28;20218;-88
2024/01/04 16:05:36;;;;;;;1.83;1.73;;;2.30;1.00;;;;;;5003198;28;20292;-86
2024/01/04 16:08:45;;;;;;;2.08;1.85;;;2.10;99.90;;;;;;5002072;28;20205;-89
2024/01/04 16:11:24;;;;;;;2.90;2.63;;;2.10;99.90;;;;;;4922652;29;20204;-91
2024/01/04 17:00:51;;;;;;;2.22;2.00;;;1.90;99.90;;;;;;5062039;23;20598;-81
2024/01/04 17:03:18;;;;;;;2.08;1.95;;;1.90;99.90;;;;;;4982281;28;20233;-81
2024/01/04 17:05:45;;;;;;;2.10;2.00;;;1.90;99.90;;;;;;4983710;28;20205;-81
2024/01/04 17:08:12;;;;;;;2.00;1.80;;;1.90;99.90;;;;;;4985101;28;20307;-80
2024/01/04 17:10:40;;;;;;;6.88;2.30;;;1.90;99.90;;;;;;4983453;28;20309;-80
2024/01/04 17:13:07;;;;;;;1.67;1.58;;;1.90;99.90;;;;;;4987754;28;20214;-80
2024/01/04 17:15:34;;;;;;;2.20;1.95;;;1.90;99.90;;;;;;4988504;28;20273;-81
2024/01/04 17:18:03;;;;;;;2.90;2.70;;;1.90;99.90;;;;;;4983760;28;20211;-80
2024/01/04 17:20:30;;;;;;;2.90;2.55;;;1.90;99.90;;;;;;4983970;28;20225;-81
2024/01/04 17:22:57;;;;;;;3.33;3.13;;;1.90;99.90;;;;;;4987387;28;20300;-81
2024/01/04 17:25:24;;;;;;;2.28;2.15;;;1.80;94.60;;;;;;4991112;28;20266;-81
2024/01/04 17:27:51;;;;;;;2.65;2.30;;;1.90;99.90;;;;;;4998172;28;20249;-78
2024/01/04 17:30:21;;;;;;;2.80;2.47;;;1.80;99.90;;;;;;4999147;28;20237;-79
2024/01/04 17:32:48;;;;;;;2.85;2.60;;;1.80;91.70;;;;;;4999520;28;20190;-79
2024/01/04 17:35:17;;;;;;;5.22;2.38;;;1.70;32.80;;;;;;4999533;28;20233;-81
2024/01/04 17:37:44;;;;;;;3.55;2.65;;;1.70;1.00;;;;;;4999319;28;20202;-81
2024/01/04 17:40:12;;;;;;;2.97;1.95;;;1.70;1.00;;;;;;4997569;28;20367;-81
2024/01/04 17:42:38;;;;;;;5.32;2.80;;;1.80;2.00;;;;;;4990391;28;20206;-82
2024/01/04 17:45:08;;;;;;;4.88;3.22;;;1.80;1.00;;;;;;4992090;28;20285;-82
2024/01/04 17:47:35;;;;;;;2.50;2.30;;;1.80;11.70;;;;;;4995098;28;20213;-81
2024/01/04 17:50:04;;;;;;;5.75;2.65;;;1.70;1.00;;;;;;4992494;28;20740;-83
2024/01/04 17:52:33;;;;;;;3.10;2.75;;;1.70;1.00;;;;;;4992995;28;20273;-83
2024/01/04 17:55:00;;;;;;;2.72;2.47;;;1.60;1.00;;;;;;4987612;28;20212;-83
2024/01/04 17:57:27;;;;;;;2.75;2.55;;;1.70;1.00;;;;;;4985622;28;20273;-81
2024/01/04 17:59:54;;;;;;;2.80;2.60;;;1.50;1.00;;;;;;4988774;28;20256;-82
2024/01/04 18:02:21;;;;;;;4.40;3.42;;;1.60;1.00;;;;;;4989779;28;20236;-82
2024/01/04 18:04:51;;;;;;;5.47;4.20;;;1.80;1.00;;;;;;4986620;28;20213;-82
2024/01/04 18:07:21;;;;;;;6.43;5.60;;;1.90;1.00;;;;;;4987127;28;20212;-82
2024/01/04 18:09:50;;;;;;;5.03;4.53;;;1.90;1.00;;;;;;4984760;28;20232;-81
2024/01/04 18:12:17;;;;;;;5.13;4.55;;;1.90;1.00;;;;;;4986181;28;20299;-81
2024/01/04 18:14:44;;;;;;;4.50;4.10;;;1.80;1.00;;;;;;4986492;28;20263;-83
2024/01/04 18:17:11;;;;;;;3.65;3.35;;;1.90;1.00;;;;;;4985573;28;20237;-82
2024/01/04 18:19:38;;;;;;;4.88;3.53;;;1.90;1.00;;;;;;4983923;28;20229;-81
2024/01/04 18:22:05;;;;;;;3.53;3.20;;;1.90;1.00;;;;;;4982624;28;20222;-81
2024/01/04 18:24:32;;;;;;;2.53;2.33;;;1.80;1.00;;;;;;4984032;28;20300;-81
2024/01/04 18:27:00;;;;;;;2.75;2.55;;;1.80;1.00;;;;;;4984002;28;20296;-82
2024/01/04 18:29:27;;;;;;;3.97;3.15;;;1.60;1.00;;;;;;4986056;28;20234;-81
2024/01/04 18:31:54;;;;;;;4.55;3.33;;;1.50;1.00;;;;;;4985495;28;20209;-82
2024/01/04 18:34:21;;;;;;;3.47;3.17;;;1.50;1.00;;;;;;4986522;28;20210;-82
2024/01/04 18:36:48;;;;;;;3.35;3.13;;;1.70;1.00;;;;;;4987323;28;20210;-82
2024/01/04 18:39:15;;;;;;;4.88;3.80;;;1.60;1.00;;;;;;4986696;28;20236;-82
2024/01/04 18:41:43;;;;;;;3.50;3.20;;;1.70;30.20;;;;;;4985263;28;20221;-83
2024/01/04 18:44:11;;;;;;;4.47;3.63;;;1.50;1.00;;;;;;4995530;28;20216;-82
2024/01/04 18:46:38;;;;;;;2.97;2.67;;;1.70;94.70;;;;;;4996700;28;20186;-82
2024/01/04 18:49:05;;;;;;;3.20;2.95;;;1.70;71.90;;;;;;4987689;28;20302;-82
2024/01/04 18:51:32;;;;;;;3.00;2.75;;;1.70;42.30;;;;;;4991828;28;20217;-83
2024/01/04 18:53:58;;;;;;;5.10;3.17;;;1.70;1.00;;;;;;4987091;28;20210;-82
2024/01/04 18:56:27;;;;;;;3.95;2.60;;;1.70;1.00;;;;;;4985409;28;20658;-83
2024/01/04 18:58:53;;;;;;;3.50;2.67;;;1.70;1.00;;;;;;4988429;28;20329;-83
2024/01/04 19:01:23;;;;;;;3.83;3.15;;;1.80;8.80;;;;;;4984275;28;20226;-81
2024/01/04 19:03:49;;;;;;;3.40;2.40;;;1.80;1.00;;;;;;4985162;28;20229;-80
2024/01/04 19:06:16;;;;;;;4.07;2.95;;;1.80;1.00;;;;;;4988850;28;20322;-82
2024/01/04 19:08:43;;;;;;;3.03;2.22;;;1.80;1.00;;;;;;4993564;28;20579;-83
2024/01/04 19:11:10;;;;;;;2.67;2.25;;;1.80;1.00;;;;;;4989835;28;20197;-82
2024/01/04 19:13:38;;;;;;;3.97;2.90;;;1.70;1.00;;;;;;4990036;28;20313;-82
2024/01/04 19:16:08;;;;;;;2.63;2.42;;;1.80;1.00;;;;;;4987477;28;20214;-82
2024/01/04 19:18:37;;;;;;;3.00;2.72;;;1.70;1.00;;;;;;4987044;28;20232;-83
2024/01/04 19:21:04;;;;;;;2.85;2.65;;;1.60;1.00;;;;;;4986508;28;20221;-82
2024/01/04 19:23:31;;;;;;;2.55;2.25;;;1.60;1.00;;;;;;4990832;28;20205;-81
2024/01/04 19:25:58;;;;;;;3.90;3.22;;;1.70;1.00;;;;;;4991066;28;20276;-82
2024/01/04 19:28:25;;;;;;;4.55;3.08;;;1.70;1.00;;;;;;4987143;28;20201;-81
2024/01/04 19:30:52;;;;;;;2.92;2.65;;;1.70;1.00;;;;;;4986027;28;20205;-82
2024/01/04 19:33:19;;;;;;;2.72;2.50;;;1.70;1.00;;;;;;4986896;28;20233;-82
2024/01/04 19:35:47;;;;;;;2.70;2.50;;;1.80;1.00;;;;;;4986035;28;20301;-82
2024/01/04 19:38:14;;;;;;;12.00;7.57;;;1.80;1.00;;;;;;4984275;28;20229;-82
2024/01/04 19:40:41;;;;;;;5.32;3.28;;;1.90;1.00;;;;;;4983099;28;20268;-82
2024/01/04 19:43:08;;;;;;;3.13;2.30;;;1.80;1.00;;;;;;4984054;28;20233;-82
2024/01/04 19:45:35;;;;;;;3.67;2.58;;;1.80;1.00;;;;;;4989653;28;20233;-82
2024/01/04 19:48:02;;;;;;;3.80;3.53;;;1.80;1.00;;;;;;4983509;28;20206;-82
2024/01/04 19:50:29;;;;;;;2.78;2.50;;;1.80;1.00;;;;;;4983589;28;20662;-83
2024/01/04 19:52:57;;;;;;;4.65;3.35;;;1.80;1.00;;;;;;4983200;28;20209;-81
2024/01/04 19:55:24;;;;;;;8.00;3.75;;;1.80;1.00;;;;;;4980425;28;20271;-82
2024/01/04 19:57:51;;;;;;;5.72;3.40;;;1.80;1.00;;;;;;4981688;28;20209;-83
2024/01/04 20:00:18;;;;;;;6.75;3.10;;;1.80;1.00;;;;;;4981927;28;20328;-82
2024/01/04 20:02:45;;;;;;;3.75;3.28;;;1.80;1.00;;;;;;4982225;28;20229;-83
2024/01/04 20:05:12;;;;;;;6.35;3.47;;;1.80;1.00;;;;;;4982148;28;20297;-82
2024/01/04 20:07:39;;;;;;;4.07;3.28;;;1.90;1.00;;;;;;4981468;28;20301;-82
2024/01/04 20:10:08;;;;;;;5.85;2.80;;;1.90;1.00;;;;;;4981313;28;20665;-83
2024/01/04 20:12:35;;;;;;;2.92;2.70;;;1.90;1.00;;;;;;4981548;28;20284;-84
2024/01/04 20:15:02;;;;;;;2.92;2.63;;;1.90;1.00;;;;;;4981995;28;20241;-83
2024/01/04 20:17:29;;;;;;;3.63;3.22;;;2.00;1.00;;;;;;4989400;28;20274;-83
2024/01/04 20:19:56;;;;;;;3.13;2.78;;;1.90;1.00;;;;;;4984932;28;20225;-83
2024/01/04 20:22:23;;;;;;;2.88;2.67;;;1.90;1.00;;;;;;4984304;28;20365;-83
2024/01/04 20:24:50;;;;;;;5.40;3.10;;;1.80;99.90;;;;;;4983435;28;20206;-82
2024/01/04 20:27:18;;;;;;;6.45;3.95;;;2.00;1.00;;;;;;4983994;28;20228;-83
2024/01/04 20:29:45;;;;;;;5.85;2.47;;;1.90;99.90;;;;;;4983938;28;20237;-83
2024/01/04 20:32:12;;;;;;;3.67;2.63;;;1.90;99.90;;;;;;4984671;28;20617;-82
2024/01/04 20:34:39;;;;;;;3.70;3.40;;;2.00;99.90;;;;;;4998498;28;20241;-83
2024/01/04 20:37:06;;;;;;;4.93;3.10;;;1.80;99.90;;;;;;4997209;28;20202;-83
2024/01/04 20:39:33;;;;;;;2.67;2.47;;;1.90;99.90;;;;;;4996734;28;20232;-83
2024/01/04 20:42:00;;;;;;;4.80;2.75;;;1.90;99.90;;;;;;4994926;28;20395;-83
2024/01/04 20:44:28;;;;;;;3.67;3.10;;;1.80;99.90;;;;;;4997255;28;20220;-79
2024/01/04 20:46:58;;;;;;;4.15;3.33;;;1.80;99.90;;;;;;4997333;28;20240;-80
2024/01/04 20:49:25;;;;;;;5.80;3.67;;;1.80;99.90;;;;;;4996701;28;20222;-79
2024/01/04 20:51:52;;;;;;;6.95;3.50;;;1.90;99.90;;;;;;4995110;28;20232;-82
2024/01/04 20:54:19;;;;;;;6.68;3.67;;;1.80;99.90;;;;;;4992410;28;20623;-79
2024/01/04 20:56:45;;;;;;;2.78;2.60;;;1.80;99.90;;;;;;4987137;28;20221;-81
2024/01/04 20:59:12;;;;;;;4.22;3.33;;;1.90;99.90;;;;;;4984084;28;20774;-80
2024/01/04 21:01:41;;;;;;;4.15;3.30;;;1.90;99.90;;;;;;4982963;28;20257;-81
2024/01/04 21:04:08;;;;;;;3.15;2.90;;;1.80;99.90;;;;;;4982545;28;20248;-79
2024/01/04 21:06:35;;;;;;;2.72;2.53;;;1.80;99.90;;;;;;4980986;28;20274;-81
2024/01/04 21:09:02;;;;;;;4.25;3.10;;;1.90;99.90;;;;;;4980366;28;20257;-80
2024/01/04 21:11:29;;;;;;;3.35;3.05;;;1.90;99.90;;;;;;4981474;28;20202;-81
2024/01/04 21:13:56;;;;;;;4.38;3.70;;;1.90;99.90;;;;;;4981066;28;20249;-83
2024/01/04 21:16:23;;;;;;;9.15;3.20;;;1.90;99.90;;;;;;4982846;28;20202;-80
2024/01/04 21:18:51;;;;;;;4.28;3.60;;;1.90;99.90;;;;;;4985478;28;20244;-82
2024/01/04 21:21:18;;;;;;;4.28;3.92;;;1.90;1.00;;;;;;4990191;28;20210;-83
2024/01/04 21:23:45;;;;;;;3.92;2.97;;;1.90;1.00;;;;;;4991367;28;20233;-82
2024/01/04 21:26:12;;;;;;;4.22;3.85;;;2.00;1.00;;;;;;4994572;28;20201;-82
2024/01/04 21:28:38;;;;;;;3.20;2.92;;;2.00;14.70;;;;;;4994027;28;20240;-82
2024/01/04 21:31:06;;;;;;;4.30;2.75;;;2.00;99.90;;;;;;4993674;28;20244;-82
2024/01/04 21:33:33;;;;;;;3.35;3.05;;;2.00;99.90;;;;;;4995255;28;20206;-83
2024/01/04 21:36:01;;;;;;;4.65;3.30;;;2.10;99.90;;;;;;4996038;28;20274;-82
2024/01/04 21:38:28;;;;;;;3.45;2.97;;;2.00;99.90;;;;;;4995013;28;20305;-81
2024/01/04 21:40:55;;;;;;;3.60;2.67;;;2.10;99.90;;;;;;4994232;28;20213;-81
2024/01/04 21:43:22;;;;;;;3.47;3.17;;;2.00;99.90;;;;;;4992649;28;20532;-82
2024/01/04 21:45:48;;;;;;;5.15;4.13;;;2.00;99.90;;;;;;4992006;28;20244;-82
2024/01/04 21:48:15;;;;;;;4.60;2.97;;;2.00;99.90;;;;;;4993261;28;20205;-81
2024/01/04 21:50:44;;;;;;;5.28;3.35;;;2.00;99.90;;;;;;4988548;28;20214;-82
2024/01/04 21:53:14;;;;;;;6.80;3.42;;;1.90;99.90;;;;;;4993978;28;20217;-82
2024/01/04 21:55:45;;;;;;;4.85;3.15;;;2.00;93.80;;;;;;4994829;28;20209;-81
2024/01/04 21:58:12;;;;;;;5.88;4.07;;;2.00;90.60;;;;;;4985301;28;20256;-81
2024/01/04 22:00:39;;;;;;;4.10;3.45;;;2.00;54.70;;;;;;4983939;28;20324;-82
2024/01/04 22:03:07;;;;;;;4.80;4.35;;;2.00;94.90;;;;;;4982848;28;20289;-81
2024/01/04 22:05:34;;;;;;;3.97;3.58;;;2.00;49.30;;;;;;4986197;28;20228;-82
2024/01/04 22:08:01;;;;;;;4.13;3.72;;;1.90;99.90;;;;;;4986990;28;20240;-81
2024/01/04 22:10:29;;;;;;;5.78;3.35;;;2.00;99.90;;;;;;4984129;28;20384;-82
2024/01/04 22:12:56;;;;;;;3.00;2.80;;;2.00;99.90;;;;;;4981774;28;20204;-82